createdAt,value
2022-11-05T00:02:28.320Z,67928.50
2022-11-05T00:05:14.179Z,67934.16
2022-11-05T00:08:11.643Z,67923.63
2022-11-05T00:10:39.411Z,67927.41
2022-11-05T00:13:27.814Z,67926.25
2022-11-05T00:16:19.325Z,67927.03
2022-11-05T00:19:06.709Z,67926.09
2022-11-05T00:21:53.245Z,67928.16
2022-11-05T00:24:39.611Z,67927.22
2022-11-05T00:27:07.958Z,67923.25
2022-11-05T00:29:36.824Z,67922.31
2022-11-05T00:32:04.277Z,67926.09
2022-11-05T00:34:31.616Z,67932.13
2022-11-05T00:36:59.218Z,67930.06
2022-11-05T00:39:26.732Z,67933.59
2022-11-05T00:42:12.791Z,67934.16
2022-11-05T00:44:58.891Z,67932.47
2022-11-05T00:47:44.922Z,67933.22
2022-11-05T00:50:12.917Z,67931.53
2022-11-05T00:52:58.869Z,67931.91
2022-11-05T00:55:39.472Z,67938.50
2022-11-05T00:58:09.957Z,67932.69
2022-11-05T01:00:40.130Z,67938.13
2022-11-05T01:03:11.205Z,67934.94
2022-11-05T01:05:41.625Z,67941.34
2022-11-05T01:08:10.022Z,67931.38
2022-11-05T01:10:46.441Z,67936.06
2022-11-05T01:13:17.497Z,67934.56
2022-11-05T01:15:45.912Z,67932.31
2022-11-05T01:18:14.412Z,67935.69
2022-11-05T01:20:42.013Z,67936.81
2022-11-05T01:23:13.546Z,67933.44
2022-11-05T01:25:43.836Z,67932.31
2022-11-05T01:28:11.678Z,67934.94
2022-11-05T01:30:39.310Z,67937.19
2022-11-05T01:33:07.410Z,67910.72
2022-11-05T01:35:35.002Z,67933.78
2022-11-05T01:38:02.489Z,67938.69
2022-11-05T01:40:30.033Z,67932.13
2022-11-05T01:42:57.642Z,67932.69
2022-11-05T01:45:28.211Z,67928.34
2022-11-05T01:48:01.627Z,67931.53
2022-11-05T01:50:37.598Z,67930.78
2022-11-05T01:53:13.455Z,67927.03
2022-11-05T01:56:16.608Z,67930.97
2022-11-05T01:58:50.378Z,67925.53
2022-11-05T02:01:21.407Z,67929.84
2022-11-05T02:03:53.334Z,67929.84
2022-11-05T02:06:21.816Z,67928.34
2022-11-05T02:09:20.422Z,67905.06
2022-11-05T02:11:48.609Z,67926.66
2022-11-05T02:14:16.229Z,67930.41
2022-11-05T02:17:05.130Z,67930.97
2022-11-05T02:20:06.636Z,67932.31
2022-11-05T02:22:37.082Z,67931.53
2022-11-05T02:25:35.815Z,67928.91
2022-11-05T02:28:48.211Z,67933.78
2022-11-05T02:31:40.868Z,67932.69
2022-11-05T02:34:33.315Z,67933.78
2022-11-05T02:37:00.635Z,67935.31
2022-11-05T02:39:38.815Z,67930.06
2022-11-05T02:42:18.401Z,67933.78
2022-11-05T02:45:30.636Z,67932.69
2022-11-05T02:48:25.522Z,67934.94
2022-11-05T02:51:03.568Z,67930.06
2022-11-05T02:53:37.084Z,67931.53
2022-11-05T02:56:36.912Z,67929.50
2022-11-05T02:59:04.534Z,67925.72
2022-11-05T03:01:32.101Z,67931.53
2022-11-05T03:04:03.749Z,67931.53
2022-11-05T03:07:12.502Z,67928.34
2022-11-05T03:09:49.121Z,67931.91
2022-11-05T03:12:29.459Z,67932.13
2022-11-05T03:15:05.072Z,67933.22
2022-11-05T03:18:10.135Z,67930.06
2022-11-05T03:20:53.924Z,67943.03
2022-11-05T03:23:27.554Z,67938.34
2022-11-05T03:26:12.757Z,67937.19
2022-11-05T03:28:43.479Z,67932.69
2022-11-05T03:31:14.844Z,67933.44
2022-11-05T03:33:44.759Z,67931.16
2022-11-05T03:36:19.420Z,67933.22
2022-11-05T03:38:50.568Z,67933.22
2022-11-05T03:41:20.947Z,67930.59
2022-11-05T03:43:52.455Z,67931.75
2022-11-05T03:46:38.796Z,67934.38
2022-11-05T03:49:11.388Z,67930.59
2022-11-05T03:51:46.305Z,67927.22
2022-11-05T03:54:14.539Z,67930.41
2022-11-05T03:56:51.672Z,67931.91
2022-11-05T03:59:20.667Z,67927.03
2022-11-05T04:01:49.670Z,67929.84
2022-11-05T04:04:17.520Z,67930.97
2022-11-05T04:07:03.455Z,67935.88
2022-11-05T04:09:49.413Z,67929.84
2022-11-05T04:12:35.770Z,67933.06
2022-11-05T04:15:03.829Z,67927.59
2022-11-05T04:17:31.560Z,67924.94
2022-11-05T04:20:17.666Z,67924.19
2022-11-05T04:23:03.799Z,67922.13
2022-11-05T04:25:31.337Z,67928.72
2022-11-05T04:28:00.713Z,67932.13
2022-11-05T04:30:28.254Z,67927.03
2022-11-05T04:33:00.867Z,67926.47
2022-11-05T04:35:36.943Z,67931.34
2022-11-05T04:38:06.665Z,67916.13
2022-11-05T04:40:34.489Z,67924.00
2022-11-05T04:43:02.484Z,67924.38
2022-11-05T04:45:31.470Z,67918.75
2022-11-05T04:47:59.163Z,67920.59
2022-11-05T04:50:26.700Z,67921.94
2022-11-05T04:56:12.834Z,67916.28
2022-11-05T04:58:42.226Z,67919.13
2022-11-05T05:01:15.039Z,67918.75
2022-11-05T05:03:43.005Z,67919.31
2022-11-05T05:06:10.477Z,67916.66
2022-11-05T05:08:37.939Z,67922.84
2022-11-05T05:11:07.284Z,67913.09
2022-11-05T05:13:34.845Z,67908.56
2022-11-05T05:16:11.474Z,67905.19
2022-11-05T05:18:45.050Z,67904.41
2022-11-05T05:21:33.055Z,67904.41
2022-11-05T05:24:00.763Z,67899.53
2022-11-05T05:26:28.678Z,67892.19
2022-11-05T05:28:56.239Z,67891.41
2022-11-05T05:31:24.194Z,67888.59
2022-11-05T05:33:55.039Z,67883.72
2022-11-05T05:36:23.414Z,67888.59
2022-11-05T05:38:51.132Z,67886.91
2022-11-05T05:41:18.941Z,67887.66
2022-11-05T05:43:47.639Z,67891.78
2022-11-05T05:46:16.999Z,67891.06
2022-11-05T05:48:49.117Z,67897.25
2022-11-05T05:51:19.236Z,67892.75
2022-11-05T05:53:47.301Z,67899.50
2022-11-05T05:56:19.219Z,67892.56
2022-11-05T05:58:47.529Z,67898.00
2022-11-05T06:01:22.172Z,67892.00
2022-11-05T06:03:49.659Z,67892.19
2022-11-05T06:06:21.415Z,67894.66
2022-11-05T06:08:49.045Z,67901.03
2022-11-05T06:11:16.632Z,67900.84
2022-11-05T06:13:44.232Z,67898.19
2022-11-05T06:16:11.718Z,67890.47
2022-11-05T06:18:39.874Z,67896.66
2022-11-05T06:21:13.764Z,67891.06
2022-11-05T06:23:45.436Z,67892.00
2022-11-05T06:26:15.548Z,67885.97
2022-11-05T06:28:43.431Z,67888.59
2022-11-05T06:31:11.681Z,67884.84
2022-11-05T06:33:40.313Z,67892.38
2022-11-05T06:36:16.292Z,67892.56
2022-11-05T06:38:43.985Z,67897.06
2022-11-05T06:41:13.168Z,67898.94
2022-11-05T06:43:41.745Z,67899.91
2022-11-05T06:46:11.324Z,67898.56
2022-11-05T06:48:39.220Z,67902.16
2022-11-05T06:51:08.143Z,67905.56
2022-11-05T06:53:36.186Z,67904.03
2022-11-05T06:56:06.025Z,67905.56
2022-11-05T06:58:34.275Z,67916.28
2022-11-05T07:01:04.470Z,67915.53
2022-11-05T07:03:32.036Z,67917.59
2022-11-05T07:06:01.014Z,67914.78
2022-11-05T07:08:33.433Z,67918.75
2022-11-05T07:11:23.054Z,67917.59
2022-11-05T07:13:50.464Z,67924.41
2022-11-05T07:16:18.035Z,67930.97
2022-11-05T07:18:45.778Z,67929.84
2022-11-05T07:21:13.285Z,67936.25
2022-11-05T07:23:40.769Z,67937.97
2022-11-05T07:26:08.235Z,67938.34
2022-11-05T07:28:35.807Z,67936.81
2022-11-05T07:31:04.318Z,67939.66
2022-11-05T07:33:36.311Z,67947.16
2022-11-05T07:36:04.429Z,67944.91
2022-11-05T07:38:31.973Z,67940.03
2022-11-05T07:41:00.796Z,67940.22
2022-11-05T07:43:28.344Z,67940.59
2022-11-05T07:46:07.598Z,67940.59
2022-11-05T07:48:39.128Z,67953.59
2022-11-05T07:51:06.592Z,67947.75
2022-11-05T07:53:35.250Z,67941.34
2022-11-05T07:56:02.895Z,67941.34
2022-11-05T07:58:30.755Z,67940.03
2022-11-05T08:00:58.397Z,67950.00
2022-11-05T08:03:26.039Z,67967.72
2022-11-05T08:05:53.887Z,67956.25
2022-11-05T08:08:21.511Z,67964.91
2022-11-05T08:10:48.982Z,67978.66
2022-11-05T08:13:17.143Z,67995.41
2022-11-05T08:15:46.405Z,67989.97
2022-11-05T08:18:16.648Z,67999.03
2022-11-05T08:20:45.949Z,67993.16
2022-11-05T08:23:14.516Z,68003.91
2022-11-05T08:25:42.499Z,67999.94
2022-11-05T08:28:13.852Z,67994.47
2022-11-05T08:30:41.617Z,68001.66
2022-11-05T08:33:11.814Z,67992.59
2022-11-05T08:35:40.050Z,67975.69
2022-11-05T08:38:08.427Z,68010.88
2022-11-05T08:40:37.290Z,68022.63
2022-11-05T08:43:07.306Z,68062.00
2022-11-05T08:45:38.267Z,68075.75
2022-11-05T08:48:09.563Z,68081.97
2022-11-05T08:50:37.704Z,68068.38
2022-11-05T08:53:06.801Z,68046.50
2022-11-05T08:55:34.584Z,68042.56
2022-11-05T08:58:04.734Z,68050.84
2022-11-05T09:00:36.848Z,68061.78
2022-11-05T09:03:07.502Z,68088.19
2022-11-05T09:05:39.846Z,68093.66
2022-11-05T09:08:17.460Z,68065.75
2022-11-05T09:10:47.016Z,68056.13
2022-11-05T09:13:18.891Z,68055.00
2022-11-05T09:15:50.743Z,68117.44
2022-11-05T09:18:19.537Z,68141.03
2022-11-05T09:20:47.974Z,68095.94
2022-11-05T09:23:15.912Z,68097.22
2022-11-05T09:25:43.810Z,68098.38
2022-11-05T09:28:17.816Z,68101.97
2022-11-05T09:30:53.098Z,68126.13
2022-11-05T09:33:23.618Z,68135.56
2022-11-05T09:36:08.534Z,68128.22
2022-11-05T09:38:36.384Z,68130.09
2022-11-05T09:41:30.949Z,68164.25
2022-11-05T09:44:06.204Z,68191.63
2022-11-05T09:46:45.638Z,68195.38
2022-11-05T09:49:25.185Z,68194.81
2022-11-05T09:51:55.971Z,68218.03
2022-11-05T09:54:26.221Z,68237.84
2022-11-05T09:56:55.367Z,68239.38
2022-11-05T09:59:46.328Z,68264.47
2022-11-05T10:02:55.786Z,68265.41
2022-11-05T10:05:25.651Z,68263.16
2022-11-05T10:08:05.046Z,68237.47
2022-11-05T10:10:43.399Z,68235.41
2022-11-05T10:13:20.049Z,68283.75
2022-11-05T10:16:08.294Z,68273.34
2022-11-05T10:18:43.100Z,68262.00
2022-11-05T10:21:37.688Z,68290.53
2022-11-05T10:24:15.171Z,68275.06
2022-11-05T10:26:46.586Z,68330.41
2022-11-05T10:29:21.763Z,68389.00
2022-11-05T10:31:49.756Z,68385.81
2022-11-05T10:34:18.076Z,68384.09
2022-11-05T10:37:11.111Z,68427.38
2022-11-05T10:39:38.893Z,68403.38
2022-11-05T10:42:37.521Z,68418.50
2022-11-05T10:45:17.719Z,68424.91
2022-11-05T10:48:05.762Z,68423.78
2022-11-05T10:50:34.394Z,68378.44
2022-11-05T10:53:11.137Z,68361.97
2022-11-05T10:55:43.607Z,68358.75
2022-11-05T10:58:17.517Z,68360.28
2022-11-05T11:01:06.798Z,68306.25
2022-11-05T11:03:34.800Z,68337.03
2022-11-05T11:06:22.848Z,68348.94
2022-11-05T11:08:52.607Z,68388.25
2022-11-05T11:12:11.973Z,68378.81
2022-11-05T11:14:40.408Z,68325.13
2022-11-05T11:17:41.714Z,68313.03
2022-11-05T11:20:18.825Z,68350.06
2022-11-05T11:23:16.116Z,68341.38
2022-11-05T11:25:57.941Z,68314.34
2022-11-05T11:28:35.011Z,68281.88
2022-11-05T11:31:14.217Z,68290.91
2022-11-05T11:33:45.904Z,68251.81
2022-11-05T11:36:16.855Z,68233.88
2022-11-05T11:38:44.814Z,68228.81
2022-11-05T11:41:21.681Z,68269.94
2022-11-05T11:43:52.989Z,68312.44
2022-11-05T11:46:21.478Z,68361.59
2022-11-05T11:48:49.790Z,68389.78
2022-11-05T11:51:32.834Z,68396.38
2022-11-05T11:54:01.529Z,68417.38
2022-11-05T11:56:30.501Z,68446.84
2022-11-05T12:00:06.686Z,68450.81
2022-11-05T12:02:52.606Z,68434.56
2022-11-05T12:05:35.165Z,68444.59
2022-11-05T12:08:44.341Z,68420.19
2022-11-05T12:11:41.973Z,68377.28
2022-11-05T12:14:09.534Z,68332.88
2022-11-05T12:16:54.961Z,68292.44
2022-11-05T12:19:31.641Z,68232.00
2022-11-05T12:22:14.536Z,68224.84
2022-11-05T12:24:51.144Z,68200.47
2022-11-05T12:27:54.221Z,68186.13
2022-11-05T12:30:23.508Z,68177.63
2022-11-05T12:33:20.256Z,68172.53
2022-11-05T12:36:13.456Z,68175.94
2022-11-05T12:39:06.249Z,68177.81
2022-11-05T12:41:38.951Z,68174.41
2022-11-05T12:44:27.806Z,68174.41
2022-11-05T12:47:14.200Z,68164.78
2022-11-05T12:49:57.888Z,68182.72
2022-11-05T12:52:25.828Z,68185.56
2022-11-05T12:55:04.219Z,68181.41
2022-11-05T12:57:36.814Z,68183.50
2022-11-05T13:00:16.756Z,68214.06
2022-11-05T13:03:36.990Z,68240.88
2022-11-05T13:06:17.657Z,68241.06
2022-11-05T13:09:00.287Z,68247.69
2022-11-05T13:11:54.571Z,68266.75
2022-11-05T13:14:35.378Z,68284.69
2022-11-05T13:17:24.745Z,68259.75
2022-11-05T13:20:26.736Z,68261.84
2022-11-05T13:23:06.993Z,68264.09
2022-11-05T13:25:41.966Z,68268.81
2022-11-05T13:28:51.248Z,68256.00
2022-11-05T13:31:35.361Z,68255.78
2022-11-05T13:34:10.753Z,68238.22
2022-11-05T13:37:06.094Z,68225.78
2022-11-05T13:39:44.885Z,68213.88
2022-11-05T13:42:37.440Z,68212.94
2022-11-05T13:45:39.492Z,68192.19
2022-11-05T13:48:25.688Z,68185.00
2022-11-05T13:51:11.729Z,68162.91
2022-11-05T13:53:57.508Z,68154.44
2022-11-05T13:56:49.899Z,68130.28
2022-11-05T13:59:35.898Z,68115.34
2022-11-05T14:02:26.717Z,68105.75
2022-11-05T14:05:01.514Z,68100.63
2022-11-05T14:07:32.549Z,68098.94
2022-11-05T14:10:10.743Z,68081.97
2022-11-05T14:12:40.372Z,68070.09
2022-11-05T14:15:23.741Z,68072.16
2022-11-05T14:18:02.209Z,68068.19
2022-11-05T14:20:32.769Z,68080.44
2022-11-05T14:23:25.419Z,68089.13
2022-11-05T14:26:25.644Z,68101.03
2022-11-05T14:29:05.546Z,68120.47
2022-11-05T14:32:08.343Z,68122.16
2022-11-05T14:34:47.408Z,68125.75
2022-11-05T14:37:22.347Z,68102.38
2022-11-05T14:39:50.410Z,68123.84
2022-11-05T14:42:27.238Z,68119.53
2022-11-05T14:44:59.667Z,68130.28
2022-11-05T14:47:32.749Z,68123.31
2022-11-05T14:50:18.363Z,68125.34
2022-11-05T14:52:57.792Z,68108.75
2022-11-05T14:55:31.536Z,68097.44
2022-11-05T14:57:59.415Z,68103.66
2022-11-05T15:00:29.977Z,68092.72
2022-11-05T15:03:23.098Z,68081.41
2022-11-05T15:05:53.408Z,68073.66
2022-11-05T15:08:26.798Z,68066.69
2022-11-05T15:13:58.545Z,68042.56
2022-11-05T15:16:33.059Z,68037.47
2022-11-05T15:19:00.812Z,68032.16
2022-11-05T15:21:32.340Z,68026.53
2022-11-05T15:24:02.460Z,68014.84
2022-11-05T15:27:11.067Z,68015.78
2022-11-05T15:29:38.832Z,68008.97
2022-11-05T15:32:14.609Z,68000.69
2022-11-05T15:34:51.504Z,68001.66
2022-11-05T15:37:24.097Z,68013.53
2022-11-05T15:39:53.780Z,68018.03
2022-11-05T15:42:23.789Z,68012.00
2022-11-05T15:44:59.637Z,68010.69
2022-11-05T15:47:32.237Z,68010.88
2022-11-05T15:50:02.508Z,67999.56
2022-11-05T15:52:42.331Z,67999.94
2022-11-05T15:55:13.135Z,67999.38
2022-11-05T15:57:57.094Z,67992.59
2022-11-05T16:00:27.364Z,67980.72
2022-11-05T16:03:01.780Z,67982.44
2022-11-05T16:05:33.673Z,67977.88
2022-11-05T16:08:04.392Z,67968.84
2022-11-05T16:10:35.188Z,67967.72
2022-11-05T16:13:38.551Z,67957.56
2022-11-05T16:16:13.641Z,67950.94
2022-11-05T16:18:42.791Z,67947.34
2022-11-05T16:21:19.075Z,67949.63
2022-11-05T16:23:55.120Z,67962.81
2022-11-05T16:27:00.704Z,67949.63
2022-11-05T16:29:23.732Z,67941.34
2022-11-05T16:31:56.510Z,67937.41
2022-11-05T16:34:36.665Z,67931.38
2022-11-05T16:37:06.100Z,67929.28
2022-11-05T16:39:34.334Z,67915.72
2022-11-05T16:42:01.934Z,67914.03
2022-11-05T16:44:29.498Z,67920.06
2022-11-05T16:46:58.444Z,67912.31
2022-11-05T16:49:25.959Z,67904.41
2022-11-05T16:51:53.513Z,67900.47
2022-11-05T16:54:21.122Z,67897.47
2022-11-05T16:56:48.632Z,67892.75
2022-11-05T16:59:16.091Z,67893.69
2022-11-05T17:01:44.379Z,67887.28
2022-11-05T17:04:13.557Z,67874.28
2022-11-05T17:06:41.014Z,67880.13
2022-11-05T17:09:08.384Z,67880.69
2022-11-05T17:11:36.012Z,67892.00
2022-11-05T17:14:03.699Z,67886.72
2022-11-05T17:16:32.405Z,67873.16
2022-11-05T17:18:59.895Z,67865.44
2022-11-05T17:21:28.902Z,67859.22
2022-11-05T17:23:56.465Z,67858.47
2022-11-05T17:26:24.426Z,67850.19
2022-11-05T17:28:51.726Z,67850.75
2022-11-05T17:31:19.176Z,67857.50
2022-11-05T17:33:46.557Z,67854.66
2022-11-05T17:36:16.139Z,67843.94
2022-11-05T17:38:46.922Z,67847.69
2022-11-05T17:41:23.847Z,67851.69
2022-11-05T17:43:56.931Z,67846.56
2022-11-05T17:46:25.273Z,67850.19
2022-11-05T17:48:55.229Z,67834.53
2022-11-05T17:51:22.895Z,67836.59
2022-11-05T17:53:50.324Z,67836.59
2022-11-05T17:56:30.598Z,67830.03
2022-11-05T17:59:02.402Z,67829.25
2022-11-05T18:01:33.151Z,67824.38
2022-11-05T18:04:07.172Z,67823.06
2022-11-05T18:06:40.670Z,67819.66
2022-11-05T18:09:09.930Z,67814.22
2022-11-05T18:11:38.855Z,67808.56
2022-11-05T18:14:07.110Z,67809.88
2022-11-05T18:16:35.163Z,67805.56
2022-11-05T18:19:04.227Z,67806.47
2022-11-05T18:21:31.691Z,67803.84
2022-11-05T18:24:02.770Z,67810.81
2022-11-05T18:26:30.187Z,67812.31
2022-11-05T18:29:00.455Z,67811.19
2022-11-05T18:31:28.249Z,67804.41
2022-11-05T18:33:58.614Z,67812.91
2022-11-05T18:36:29.684Z,67816.63
2022-11-05T18:39:02.175Z,67812.69
2022-11-05T18:41:29.740Z,67803.13
2022-11-05T18:44:01.750Z,67808.38
2022-11-05T18:46:56.396Z,67805.34
2022-11-05T18:49:18.467Z,67793.13
2022-11-05T18:51:46.222Z,67794.25
2022-11-05T18:54:13.633Z,67795.94
2022-11-05T18:56:45.661Z,67799.72
2022-11-05T18:59:35.919Z,67807.81
2022-11-05T19:02:03.633Z,67802.94
2022-11-05T19:04:31.325Z,67800.09
2022-11-05T19:07:04.486Z,67809.31
2022-11-05T19:09:37.796Z,67807.63
2022-11-05T19:12:07.213Z,67805.91
2022-11-05T19:14:35.890Z,67793.13
2022-11-05T19:17:03.707Z,67786.34
2022-11-05T19:19:31.303Z,67781.06
2022-11-05T19:21:59.117Z,67769.41
2022-11-05T19:24:27.268Z,67748.53
2022-11-05T19:26:55.002Z,67756.44
2022-11-05T19:29:22.544Z,67759.81
2022-11-05T19:31:50.080Z,67758.69
2022-11-05T19:34:17.537Z,67756.25
2022-11-05T19:36:45.039Z,67752.47
2022-11-05T19:39:14.602Z,67752.47
2022-11-05T19:41:42.323Z,67770.91
2022-11-05T19:44:09.899Z,67763.22
2022-11-05T19:46:37.475Z,67761.50
2022-11-05T19:49:04.850Z,67769.25
2022-11-05T19:51:33.064Z,67754.16
2022-11-05T19:54:03.776Z,67756.78
2022-11-05T19:56:33.760Z,67746.84
2022-11-05T19:59:03.445Z,67738.94
2022-11-05T20:01:31.240Z,67736.69
2022-11-05T20:03:59.809Z,67729.34
2022-11-05T20:06:33.654Z,67740.63
2022-11-05T20:11:54.656Z,67733.28
2022-11-05T20:14:23.640Z,67727.09
2022-11-05T20:16:51.061Z,67735.56
2022-11-05T20:19:20.320Z,67740.63
2022-11-05T20:21:48.406Z,67730.88
2022-11-05T20:24:23.757Z,67748.75
2022-11-05T20:26:54.906Z,67736.13
2022-11-05T20:29:23.397Z,67734.97
2022-11-05T20:31:54.969Z,67730.84
2022-11-05T20:34:25.369Z,67715.78
2022-11-05T20:36:52.738Z,67717.31
2022-11-05T20:39:21.374Z,67709.03
2022-11-05T20:41:48.739Z,67697.75
2022-11-05T20:44:16.151Z,67733.66
2022-11-05T20:46:43.550Z,67718.06
2022-11-05T20:49:11.099Z,67721.03
2022-11-05T20:51:41.810Z,67705.28
2022-11-05T20:54:09.592Z,67697.59
2022-11-05T20:56:38.202Z,67706.78
2022-11-05T20:59:05.943Z,67710.16
2022-11-05T21:01:34.873Z,67681.50
2022-11-05T21:04:03.447Z,67706.19
2022-11-05T21:06:31.675Z,67694.00
2022-11-05T21:08:59.527Z,67683.06
2022-11-05T21:11:26.867Z,67688.34
2022-11-05T21:13:54.861Z,67688.16
2022-11-05T21:16:22.531Z,67676.31
2022-11-05T21:18:50.026Z,67684.78
2022-11-05T21:21:20.228Z,67678.78
2022-11-05T21:23:48.199Z,67666.16
2022-11-05T21:26:16.999Z,67662.78
2022-11-05T21:28:44.870Z,67656.00
2022-11-05T21:31:12.174Z,67668.25
2022-11-05T21:33:39.729Z,67662.78
2022-11-05T21:36:10.483Z,67662.78
2022-11-05T21:38:38.535Z,67661.66
2022-11-05T21:41:07.492Z,67657.69
2022-11-05T21:43:35.012Z,67687.59
2022-11-05T21:46:04.412Z,67676.72
2022-11-05T21:48:32.480Z,67648.69
2022-11-05T21:51:18.779Z,67641.19
2022-11-05T21:54:05.036Z,67660.31
2022-11-05T21:56:51.994Z,67665.59
2022-11-05T21:59:43.263Z,67665.22
2022-11-05T22:02:13.320Z,67651.50
2022-11-05T22:04:47.055Z,67654.47
2022-11-05T22:07:17.382Z,67651.50
2022-11-05T22:09:45.006Z,67646.41
2022-11-05T22:12:12.687Z,67643.59
2022-11-05T22:14:40.382Z,67640.78
2022-11-05T22:17:08.820Z,67633.81
2022-11-05T22:19:36.903Z,67640.38
2022-11-05T22:22:05.843Z,67630.06
2022-11-05T22:24:34.568Z,67633.81
2022-11-05T22:27:04.765Z,67627.59
2022-11-05T22:29:32.485Z,67627.81
2022-11-05T22:32:00.228Z,67618.03
2022-11-05T22:34:28.013Z,67608.66
2022-11-05T22:36:55.589Z,67625.56
2022-11-05T22:39:23.253Z,67604.13
2022-11-05T22:41:54.602Z,67615.03
2022-11-05T22:44:23.062Z,67613.50
2022-11-05T22:46:50.890Z,67622.53
2022-11-05T22:49:18.256Z,67621.78
2022-11-05T22:51:45.710Z,67614.06
2022-11-05T22:54:13.113Z,67622.53
2022-11-05T22:56:42.580Z,67619.16
2022-11-05T22:59:14.636Z,67620.47
2022-11-05T23:01:44.217Z,67614.44
2022-11-05T23:04:13.238Z,67605.63
2022-11-05T23:06:59.630Z,67603.00
2022-11-05T23:09:57.158Z,67603.00
2022-11-05T23:12:26.225Z,67600.75
2022-11-05T23:14:55.129Z,67608.28
2022-11-05T23:17:41.592Z,67586.78
2022-11-05T23:20:32.603Z,67620.47
2022-11-05T23:23:18.784Z,67615.41
2022-11-05T23:25:46.376Z,67596.63
2022-11-05T23:28:14.597Z,67589.47
2022-11-05T23:31:04.358Z,67585.31
2022-11-05T23:33:34.527Z,67575.94
2022-11-05T23:36:21.711Z,67575.91
2022-11-05T23:38:49.211Z,67557.34
2022-11-05T23:41:48.865Z,67546.63
2022-11-05T23:44:45.615Z,67542.69
2022-11-05T23:47:31.973Z,67557.72
2022-11-05T23:49:59.413Z,67569.75
2022-11-05T23:52:26.927Z,67568.06
2022-11-05T23:54:54.273Z,67570.50
2022-11-05T23:57:21.626Z,67578.19
2022-11-05T23:59:49.039Z,67579.91
